sensor_id;sensor_type;location;lat;lon;timestamp;P1;durP1;ratioP1;P2;durP2;ratioP2
23406;SDS011;11876;53.438;18.942;2023-04-24T00:02:18;7.43;;;6.72;;
23406;SDS011;11876;53.438;18.942;2023-04-24T00:05:21;8.73;;;7.45;;
23406;SDS011;11876;53.438;18.942;2023-04-24T00:08:24;8.80;;;7.22;;
23406;SDS011;11876;53.438;18.942;2023-04-24T00:11:26;8.85;;;7.95;;
23406;SDS011;11876;53.438;18.942;2023-04-24T00:14:29;9.02;;;8.13;;
23406;SDS011;11876;53.438;18.942;2023-04-24T00:17:32;10.52;;;8.70;;
23406;SDS011;11876;53.438;18.942;2023-04-24T00:20:34;10.38;;;8.70;;
23406;SDS011;11876;53.438;18.942;2023-04-24T00:23:39;12.70;;;8.70;;
23406;SDS011;11876;53.438;18.942;2023-04-24T00:26:42;9.18;;;7.65;;
23406;SDS011;11876;53.438;18.942;2023-04-24T00:29:44;10.82;;;8.23;;
23406;SDS011;11876;53.438;18.942;2023-04-24T00:32:47;9.38;;;7.93;;
23406;SDS011;11876;53.438;18.942;2023-04-24T00:35:49;9.98;;;8.07;;
23406;SDS011;11876;53.438;18.942;2023-04-24T00:38:52;10.73;;;8.82;;
23406;SDS011;11876;53.438;18.942;2023-04-24T00:41:55;8.90;;;7.93;;
23406;SDS011;11876;53.438;18.942;2023-04-24T00:44:58;10.10;;;8.70;;
23406;SDS011;11876;53.438;18.942;2023-04-24T00:48:00;9.30;;;7.90;;
23406;SDS011;11876;53.438;18.942;2023-04-24T00:51:04;9.65;;;8.65;;
23406;SDS011;11876;53.438;18.942;2023-04-24T00:54:06;10.32;;;9.23;;
23406;SDS011;11876;53.438;18.942;2023-04-24T00:57:09;14.38;;;10.80;;
23406;SDS011;11876;53.438;18.942;2023-04-24T01:00:12;16.77;;;10.90;;
23406;SDS011;11876;53.438;18.942;2023-04-24T01:03:16;11.98;;;10.00;;
23406;SDS011;11876;53.438;18.942;2023-04-24T01:06:19;14.07;;;9.50;;
23406;SDS011;11876;53.438;18.942;2023-04-24T01:09:23;10.20;;;9.20;;
23406;SDS011;11876;53.438;18.942;2023-04-24T01:12:25;12.70;;;10.25;;
23406;SDS011;11876;53.438;18.942;2023-04-24T01:15:28;10.93;;;9.80;;
23406;SDS011;11876;53.438;18.942;2023-04-24T01:18:30;16.17;;;12.32;;
23406;SDS011;11876;53.438;18.942;2023-04-24T01:21:34;15.25;;;12.57;;
23406;SDS011;11876;53.438;18.942;2023-04-24T01:24:38;18.45;;;11.95;;
23406;SDS011;11876;53.438;18.942;2023-04-24T01:27:41;12.98;;;10.45;;
23406;SDS011;11876;53.438;18.942;2023-04-24T01:30:45;15.18;;;10.57;;
23406;SDS011;11876;53.438;18.942;2023-04-24T01:33:47;13.10;;;10.05;;
23406;SDS011;11876;53.438;18.942;2023-04-24T01:36:51;11.43;;;10.33;;
23406;SDS011;11876;53.438;18.942;2023-04-24T01:39:53;12.95;;;10.60;;
23406;SDS011;11876;53.438;18.942;2023-04-24T01:42:56;12.90;;;10.63;;
23406;SDS011;11876;53.438;18.942;2023-04-24T01:45:59;12.07;;;10.77;;
23406;SDS011;11876;53.438;18.942;2023-04-24T01:49:02;12.15;;;10.60;;
23406;SDS011;11876;53.438;18.942;2023-04-24T01:52:04;12.55;;;11.25;;
23406;SDS011;11876;53.438;18.942;2023-04-24T01:55:07;12.70;;;10.65;;
23406;SDS011;11876;53.438;18.942;2023-04-24T01:58:09;14.30;;;11.57;;
23406;SDS011;11876;53.438;18.942;2023-04-24T02:01:22;14.90;;;11.00;;
23406;SDS011;11876;53.438;18.942;2023-04-24T02:04:26;15.90;;;12.93;;
23406;SDS011;11876;53.438;18.942;2023-04-24T02:07:29;15.02;;;11.82;;
23406;SDS011;11876;53.438;18.942;2023-04-24T02:10:31;22.60;;;14.48;;
23406;SDS011;11876;53.438;18.942;2023-04-24T02:13:34;22.10;;;15.65;;
23406;SDS011;11876;53.438;18.942;2023-04-24T02:16:36;28.65;;;17.23;;
23406;SDS011;11876;53.438;18.942;2023-04-24T02:19:38;16.20;;;13.05;;
23406;SDS011;11876;53.438;18.942;2023-04-24T02:22:41;22.42;;;16.52;;
23406;SDS011;11876;53.438;18.942;2023-04-24T02:25:43;35.15;;;23.08;;
23406;SDS011;11876;53.438;18.942;2023-04-24T02:28:47;40.45;;;23.90;;
23406;SDS011;11876;53.438;18.942;2023-04-24T02:31:49;18.52;;;14.70;;
23406;SDS011;11876;53.438;18.942;2023-04-24T02:34:51;31.77;;;21.45;;
23406;SDS011;11876;53.438;18.942;2023-04-24T02:37:54;30.63;;;20.58;;
23406;SDS011;11876;53.438;18.942;2023-04-24T02:40:56;16.48;;;13.65;;
23406;SDS011;11876;53.438;18.942;2023-04-24T02:44:00;15.32;;;13.25;;
23406;SDS011;11876;53.438;18.942;2023-04-24T02:47:02;25.67;;;18.88;;
23406;SDS011;11876;53.438;18.942;2023-04-24T02:50:06;14.30;;;12.90;;
23406;SDS011;11876;53.438;18.942;2023-04-24T02:53:09;19.42;;;15.85;;
23406;SDS011;11876;53.438;18.942;2023-04-24T02:56:11;21.13;;;15.15;;
23406;SDS011;11876;53.438;18.942;2023-04-24T02:59:14;17.23;;;14.68;;
23406;SDS011;11876;53.438;18.942;2023-04-24T03:02:16;14.40;;;12.68;;
23406;SDS011;11876;53.438;18.942;2023-04-24T03:05:19;15.88;;;12.05;;
23406;SDS011;11876;53.438;18.942;2023-04-24T03:08:22;14.63;;;12.55;;
23406;SDS011;11876;53.438;18.942;2023-04-24T03:11:25;15.43;;;12.15;;
23406;SDS011;11876;53.438;18.942;2023-04-24T03:14:27;13.25;;;11.85;;
23406;SDS011;11876;53.438;18.942;2023-04-24T03:17:32;17.77;;;13.65;;
23406;SDS011;11876;53.438;18.942;2023-04-24T03:20:35;34.28;;;14.50;;
23406;SDS011;11876;53.438;18.942;2023-04-24T03:23:39;18.58;;;14.55;;
23406;SDS011;11876;53.438;18.942;2023-04-24T03:26:42;17.92;;;14.82;;
23406;SDS011;11876;53.438;18.942;2023-04-24T03:29:57;18.35;;;14.07;;
23406;SDS011;11876;53.438;18.942;2023-04-24T03:33:07;16.17;;;12.75;;
23406;SDS011;11876;53.438;18.942;2023-04-24T03:36:14;13.55;;;11.75;;
23406;SDS011;11876;53.438;18.942;2023-04-24T03:39:17;11.90;;;9.07;;
23406;SDS011;11876;53.438;18.942;2023-04-24T03:42:26;12.70;;;10.20;;
23406;SDS011;11876;53.438;18.942;2023-04-24T03:45:29;11.27;;;8.57;;
23406;SDS011;11876;53.438;18.942;2023-04-24T03:48:32;14.13;;;12.07;;
23406;SDS011;11876;53.438;18.942;2023-04-24T03:51:35;12.65;;;10.32;;
23406;SDS011;11876;53.438;18.942;2023-04-24T03:54:51;23.55;;;14.38;;
23406;SDS011;11876;53.438;18.942;2023-04-24T03:57:53;14.23;;;12.10;;
23406;SDS011;11876;53.438;18.942;2023-04-24T04:00:56;16.33;;;13.55;;
23406;SDS011;11876;53.438;18.942;2023-04-24T04:04:21;20.70;;;12.95;;
23406;SDS011;11876;53.438;18.942;2023-04-24T04:07:24;13.27;;;11.65;;
23406;SDS011;11876;53.438;18.942;2023-04-24T04:10:27;12.30;;;10.30;;
23406;SDS011;11876;53.438;18.942;2023-04-24T04:13:30;12.23;;;10.52;;
23406;SDS011;11876;53.438;18.942;2023-04-24T04:16:33;15.85;;;11.35;;
23406;SDS011;11876;53.438;18.942;2023-04-24T04:19:39;13.77;;;12.18;;
23406;SDS011;11876;53.438;18.942;2023-04-24T04:22:43;16.95;;;14.98;;
23406;SDS011;11876;53.438;18.942;2023-04-24T04:25:51;14.90;;;12.82;;
23406;SDS011;11876;53.438;18.942;2023-04-24T04:28:58;11.65;;;10.45;;
23406;SDS011;11876;53.438;18.942;2023-04-24T04:32:03;15.15;;;10.60;;
23406;SDS011;11876;53.438;18.942;2023-04-24T04:35:05;12.15;;;9.70;;
23406;SDS011;11876;53.438;18.942;2023-04-24T04:38:09;8.67;;;7.63;;
23406;SDS011;11876;53.438;18.942;2023-04-24T04:41:30;11.35;;;9.52;;
23406;SDS011;11876;53.438;18.942;2023-04-24T04:44:33;12.95;;;10.00;;
23406;SDS011;11876;53.438;18.942;2023-04-24T04:47:38;20.13;;;14.00;;
23406;SDS011;11876;53.438;18.942;2023-04-24T04:50:42;12.52;;;10.43;;
23406;SDS011;11876;53.438;18.942;2023-04-24T04:53:45;17.88;;;12.40;;
23406;SDS011;11876;53.438;18.942;2023-04-24T04:56:47;21.73;;;15.30;;
23406;SDS011;11876;53.438;18.942;2023-04-24T04:59:52;20.63;;;11.93;;
23406;SDS011;11876;53.438;18.942;2023-04-24T05:03:09;14.00;;;11.05;;
23406;SDS011;11876;53.438;18.942;2023-04-24T05:06:24;24.55;;;13.95;;
23406;SDS011;11876;53.438;18.942;2023-04-24T05:09:28;17.10;;;12.85;;
23406;SDS011;11876;53.438;18.942;2023-04-24T05:12:36;12.13;;;9.77;;
23406;SDS011;11876;53.438;18.942;2023-04-24T05:15:39;13.45;;;9.75;;
23406;SDS011;11876;53.438;18.942;2023-04-24T05:18:41;11.18;;;9.98;;
23406;SDS011;11876;53.438;18.942;2023-04-24T05:21:47;11.45;;;10.25;;
23406;SDS011;11876;53.438;18.942;2023-04-24T05:24:50;13.38;;;10.38;;
23406;SDS011;11876;53.438;18.942;2023-04-24T05:28:12;15.15;;;11.73;;
23406;SDS011;11876;53.438;18.942;2023-04-24T05:31:14;12.13;;;10.65;;
23406;SDS011;11876;53.438;18.942;2023-04-24T05:34:19;16.60;;;11.55;;
23406;SDS011;11876;53.438;18.942;2023-04-24T05:37:26;14.52;;;11.75;;
23406;SDS011;11876;53.438;18.942;2023-04-24T05:40:29;14.73;;;11.52;;
23406;SDS011;11876;53.438;18.942;2023-04-24T05:43:32;13.52;;;12.10;;
23406;SDS011;11876;53.438;18.942;2023-04-24T05:46:34;18.27;;;12.88;;
23406;SDS011;11876;53.438;18.942;2023-04-24T05:49:37;14.02;;;11.38;;
23406;SDS011;11876;53.438;18.942;2023-04-24T05:52:39;12.77;;;11.48;;
23406;SDS011;11876;53.438;18.942;2023-04-24T05:55:55;15.10;;;11.88;;
23406;SDS011;11876;53.438;18.942;2023-04-24T05:58:58;13.05;;;11.50;;
23406;SDS011;11876;53.438;18.942;2023-04-24T06:02:01;15.88;;;12.50;;
23406;SDS011;11876;53.438;18.942;2023-04-24T06:05:03;15.48;;;13.32;;
23406;SDS011;11876;53.438;18.942;2023-04-24T06:08:09;20.33;;;12.63;;
23406;SDS011;11876;53.438;18.942;2023-04-24T06:11:13;23.38;;;12.15;;
23406;SDS011;11876;53.438;18.942;2023-04-24T06:14:17;41.42;;;15.02;;
23406;SDS011;11876;53.438;18.942;2023-04-24T06:17:45;18.70;;;11.23;;
23406;SDS011;11876;53.438;18.942;2023-04-24T06:23:53;27.77;;;18.20;;
23406;SDS011;11876;53.438;18.942;2023-04-24T06:26:57;18.55;;;13.23;;
23406;SDS011;11876;53.438;18.942;2023-04-24T06:30:01;16.27;;;13.43;;
23406;SDS011;11876;53.438;18.942;2023-04-24T06:33:04;15.15;;;10.95;;
23406;SDS011;11876;53.438;18.942;2023-04-24T06:36:21;13.10;;;11.00;;
23406;SDS011;11876;53.438;18.942;2023-04-24T06:39:23;10.93;;;8.40;;
23406;SDS011;11876;53.438;18.942;2023-04-24T06:42:26;11.93;;;7.88;;
23406;SDS011;11876;53.438;18.942;2023-04-24T06:45:29;9.77;;;8.63;;
23406;SDS011;11876;53.438;18.942;2023-04-24T06:48:32;10.93;;;8.48;;
23406;SDS011;11876;53.438;18.942;2023-04-24T06:51:35;12.02;;;8.93;;
23406;SDS011;11876;53.438;18.942;2023-04-24T06:54:37;21.55;;;8.52;;
23406;SDS011;11876;53.438;18.942;2023-04-24T06:57:40;12.88;;;7.57;;
23406;SDS011;11876;53.438;18.942;2023-04-24T07:00:42;10.20;;;7.55;;
23406;SDS011;11876;53.438;18.942;2023-04-24T07:03:45;8.55;;;7.50;;
23406;SDS011;11876;53.438;18.942;2023-04-24T07:06:48;9.48;;;7.38;;
23406;SDS011;11876;53.438;18.942;2023-04-24T07:09:56;12.60;;;7.65;;
23406;SDS011;11876;53.438;18.942;2023-04-24T07:12:59;7.50;;;6.75;;
23406;SDS011;11876;53.438;18.942;2023-04-24T07:16:01;9.27;;;7.00;;
23406;SDS011;11876;53.438;18.942;2023-04-24T07:19:03;10.90;;;8.38;;
23406;SDS011;11876;53.438;18.942;2023-04-24T07:22:06;15.07;;;10.05;;
23406;SDS011;11876;53.438;18.942;2023-04-24T07:25:08;8.82;;;7.57;;
23406;SDS011;11876;53.438;18.942;2023-04-24T07:28:11;8.23;;;6.97;;
23406;SDS011;11876;53.438;18.942;2023-04-24T07:31:13;9.10;;;7.03;;
23406;SDS011;11876;53.438;18.942;2023-04-24T07:34:16;10.07;;;8.98;;
23406;SDS011;11876;53.438;18.942;2023-04-24T07:37:18;25.90;;;19.00;;
23406;SDS011;11876;53.438;18.942;2023-04-24T07:40:21;9.27;;;7.20;;
23406;SDS011;11876;53.438;18.942;2023-04-24T07:43:25;15.07;;;11.43;;
23406;SDS011;11876;53.438;18.942;2023-04-24T07:46:27;20.65;;;13.63;;
23406;SDS011;11876;53.438;18.942;2023-04-24T07:52:35;11.57;;;7.68;;
23406;SDS011;11876;53.438;18.942;2023-04-24T07:55:38;15.55;;;7.70;;
23406;SDS011;11876;53.438;18.942;2023-04-24T07:58:40;6.68;;;5.70;;
23406;SDS011;11876;53.438;18.942;2023-04-24T08:01:42;11.45;;;7.28;;
23406;SDS011;11876;53.438;18.942;2023-04-24T08:04:45;8.43;;;6.40;;
23406;SDS011;11876;53.438;18.942;2023-04-24T08:07:47;11.63;;;8.80;;
23406;SDS011;11876;53.438;18.942;2023-04-24T08:10:51;14.30;;;7.30;;
23406;SDS011;11876;53.438;18.942;2023-04-24T08:13:54;7.63;;;6.18;;
23406;SDS011;11876;53.438;18.942;2023-04-24T08:16:56;9.43;;;6.03;;
23406;SDS011;11876;53.438;18.942;2023-04-24T08:20:01;7.65;;;5.43;;
23406;SDS011;11876;53.438;18.942;2023-04-24T08:23:06;6.85;;;5.57;;
23406;SDS011;11876;53.438;18.942;2023-04-24T08:26:09;7.13;;;6.40;;
23406;SDS011;11876;53.438;18.942;2023-04-24T08:29:12;7.33;;;5.67;;
23406;SDS011;11876;53.438;18.942;2023-04-24T08:32:14;7.53;;;6.05;;
23406;SDS011;11876;53.438;18.942;2023-04-24T08:35:17;6.20;;;5.60;;
23406;SDS011;11876;53.438;18.942;2023-04-24T08:38:20;7.85;;;5.65;;
23406;SDS011;11876;53.438;18.942;2023-04-24T08:41:22;9.10;;;5.25;;
23406;SDS011;11876;53.438;18.942;2023-04-24T08:44:27;11.07;;;4.80;;
23406;SDS011;11876;53.438;18.942;2023-04-24T08:47:29;7.72;;;6.05;;
23406;SDS011;11876;53.438;18.942;2023-04-24T08:50:32;8.48;;;5.18;;
23406;SDS011;11876;53.438;18.942;2023-04-24T08:53:35;6.65;;;5.35;;
23406;SDS011;11876;53.438;18.942;2023-04-24T08:56:38;11.98;;;7.13;;
23406;SDS011;11876;53.438;18.942;2023-04-24T08:59:41;8.68;;;6.05;;
23406;SDS011;11876;53.438;18.942;2023-04-24T09:02:44;12.13;;;5.30;;
23406;SDS011;11876;53.438;18.942;2023-04-24T09:05:47;13.15;;;8.10;;
23406;SDS011;11876;53.438;18.942;2023-04-24T09:08:51;7.97;;;5.30;;
23406;SDS011;11876;53.438;18.942;2023-04-24T09:11:57;8.43;;;4.55;;
23406;SDS011;11876;53.438;18.942;2023-04-24T09:15:01;5.45;;;3.70;;
23406;SDS011;11876;53.438;18.942;2023-04-24T09:18:05;7.15;;;4.28;;
23406;SDS011;11876;53.438;18.942;2023-04-24T09:21:08;6.50;;;4.47;;
23406;SDS011;11876;53.438;18.942;2023-04-24T09:24:15;4.50;;;3.95;;
23406;SDS011;11876;53.438;18.942;2023-04-24T09:27:24;8.55;;;3.88;;
23406;SDS011;11876;53.438;18.942;2023-04-24T09:30:26;5.07;;;3.95;;
23406;SDS011;11876;53.438;18.942;2023-04-24T09:33:28;7.03;;;4.72;;
23406;SDS011;11876;53.438;18.942;2023-04-24T09:36:35;6.43;;;4.60;;
23406;SDS011;11876;53.438;18.942;2023-04-24T09:39:42;6.85;;;4.35;;
23406;SDS011;11876;53.438;18.942;2023-04-24T09:42:55;4.28;;;3.88;;
23406;SDS011;11876;53.438;18.942;2023-04-24T09:45:58;5.32;;;4.00;;
23406;SDS011;11876;53.438;18.942;2023-04-24T09:52:31;6.38;;;4.47;;
23406;SDS011;11876;53.438;18.942;2023-04-24T09:55:36;5.50;;;3.70;;
23406;SDS011;11876;53.438;18.942;2023-04-24T09:58:42;6.30;;;3.28;;
23406;SDS011;11876;53.438;18.942;2023-04-24T10:01:45;15.00;;;3.78;;
23406;SDS011;11876;53.438;18.942;2023-04-24T10:04:57;5.43;;;3.60;;
23406;SDS011;11876;53.438;18.942;2023-04-24T10:11:08;3.17;;;2.65;;
23406;SDS011;11876;53.438;18.942;2023-04-24T10:17:15;3.88;;;3.58;;
23406;SDS011;11876;53.438;18.942;2023-04-24T10:20:18;5.63;;;3.10;;
23406;SDS011;11876;53.438;18.942;2023-04-24T10:23:25;5.30;;;3.80;;
23406;SDS011;11876;53.438;18.942;2023-04-24T10:26:27;4.60;;;3.38;;
23406;SDS011;11876;53.438;18.942;2023-04-24T10:29:30;3.67;;;3.33;;
23406;SDS011;11876;53.438;18.942;2023-04-24T10:32:33;6.03;;;4.00;;
23406;SDS011;11876;53.438;18.942;2023-04-24T10:35:37;3.47;;;3.17;;
23406;SDS011;11876;53.438;18.942;2023-04-24T10:38:42;4.55;;;3.63;;
23406;SDS011;11876;53.438;18.942;2023-04-24T10:41:45;3.65;;;3.35;;
23406;SDS011;11876;53.438;18.942;2023-04-24T10:44:48;5.47;;;3.08;;
23406;SDS011;11876;53.438;18.942;2023-04-24T10:47:58;5.45;;;3.63;;
23406;SDS011;11876;53.438;18.942;2023-04-24T10:51:06;4.60;;;3.40;;
23406;SDS011;11876;53.438;18.942;2023-04-24T10:54:23;4.07;;;3.60;;
23406;SDS011;11876;53.438;18.942;2023-04-24T10:57:26;4.70;;;3.70;;
23406;SDS011;11876;53.438;18.942;2023-04-24T11:00:32;4.00;;;3.60;;
23406;SDS011;11876;53.438;18.942;2023-04-24T11:03:34;6.50;;;4.18;;
23406;SDS011;11876;53.438;18.942;2023-04-24T11:06:38;4.80;;;3.60;;
23406;SDS011;11876;53.438;18.942;2023-04-24T11:09:44;6.65;;;4.07;;
23406;SDS011;11876;53.438;18.942;2023-04-24T11:12:47;7.18;;;4.00;;
23406;SDS011;11876;53.438;18.942;2023-04-24T11:22:20;5.40;;;3.80;;
23406;SDS011;11876;53.438;18.942;2023-04-24T11:25:30;9.02;;;7.65;;
23406;SDS011;11876;53.438;18.942;2023-04-24T11:28:34;18.70;;;12.60;;
23406;SDS011;11876;53.438;18.942;2023-04-24T11:31:37;7.03;;;5.78;;
23406;SDS011;11876;53.438;18.942;2023-04-24T11:34:41;4.38;;;3.63;;
23406;SDS011;11876;53.438;18.942;2023-04-24T11:37:44;6.13;;;5.47;;
23406;SDS011;11876;53.438;18.942;2023-04-24T11:41:08;14.18;;;10.82;;
23406;SDS011;11876;53.438;18.942;2023-04-24T11:44:10;8.43;;;7.40;;
23406;SDS011;11876;53.438;18.942;2023-04-24T11:47:13;5.85;;;3.92;;
23406;SDS011;11876;53.438;18.942;2023-04-24T11:50:17;7.40;;;5.35;;
23406;SDS011;11876;53.438;18.942;2023-04-24T11:53:20;6.50;;;4.20;;
23406;SDS011;11876;53.438;18.942;2023-04-24T11:56:23;8.02;;;4.80;;
23406;SDS011;11876;53.438;18.942;2023-04-24T11:59:26;9.38;;;5.35;;
23406;SDS011;11876;53.438;18.942;2023-04-24T12:02:29;14.50;;;6.30;;
23406;SDS011;11876;53.438;18.942;2023-04-24T12:05:31;16.85;;;7.60;;
23406;SDS011;11876;53.438;18.942;2023-04-24T12:08:34;8.98;;;5.60;;
23406;SDS011;11876;53.438;18.942;2023-04-24T12:11:38;6.03;;;4.70;;
23406;SDS011;11876;53.438;18.942;2023-04-24T12:14:56;5.05;;;4.40;;
23406;SDS011;11876;53.438;18.942;2023-04-24T12:18:00;4.38;;;3.70;;
23406;SDS011;11876;53.438;18.942;2023-04-24T12:24:54;7.60;;;3.37;;
23406;SDS011;11876;53.438;18.942;2023-04-24T12:28:10;24.90;;;11.25;;
23406;SDS011;11876;53.438;18.942;2023-04-24T12:31:14;12.38;;;7.35;;
23406;SDS011;11876;53.438;18.942;2023-04-24T12:34:17;7.45;;;4.57;;
23406;SDS011;11876;53.438;18.942;2023-04-24T12:37:26;6.07;;;4.43;;
23406;SDS011;11876;53.438;18.942;2023-04-24T12:40:34;5.60;;;4.85;;
23406;SDS011;11876;53.438;18.942;2023-04-24T12:43:36;8.35;;;5.90;;
23406;SDS011;11876;53.438;18.942;2023-04-24T12:46:39;11.80;;;9.98;;
23406;SDS011;11876;53.438;18.942;2023-04-24T12:49:43;9.65;;;6.05;;
23406;SDS011;11876;53.438;18.942;2023-04-24T12:52:45;6.68;;;5.90;;
23406;SDS011;11876;53.438;18.942;2023-04-24T12:55:47;6.30;;;5.70;;
23406;SDS011;11876;53.438;18.942;2023-04-24T12:58:54;6.95;;;5.72;;
23406;SDS011;11876;53.438;18.942;2023-04-24T13:01:56;6.80;;;4.10;;
23406;SDS011;11876;53.438;18.942;2023-04-24T13:04:59;5.75;;;3.90;;
23406;SDS011;11876;53.438;18.942;2023-04-24T13:08:01;7.10;;;5.63;;
23406;SDS011;11876;53.438;18.942;2023-04-24T13:11:04;5.78;;;4.93;;
23406;SDS011;11876;53.438;18.942;2023-04-24T13:14:06;4.40;;;4.00;;
23406;SDS011;11876;53.438;18.942;2023-04-24T13:17:09;5.93;;;4.10;;
23406;SDS011;11876;53.438;18.942;2023-04-24T13:20:13;6.65;;;4.25;;
23406;SDS011;11876;53.438;18.942;2023-04-24T13:23:15;6.88;;;4.60;;
23406;SDS011;11876;53.438;18.942;2023-04-24T13:26:18;5.18;;;3.95;;
23406;SDS011;11876;53.438;18.942;2023-04-24T13:29:21;6.88;;;5.60;;
23406;SDS011;11876;53.438;18.942;2023-04-24T13:32:24;5.25;;;4.38;;
23406;SDS011;11876;53.438;18.942;2023-04-24T13:35:27;7.00;;;5.25;;
23406;SDS011;11876;53.438;18.942;2023-04-24T13:38:29;8.55;;;4.78;;
23406;SDS011;11876;53.438;18.942;2023-04-24T13:41:32;6.97;;;4.28;;
23406;SDS011;11876;53.438;18.942;2023-04-24T13:44:35;6.33;;;4.50;;
23406;SDS011;11876;53.438;18.942;2023-04-24T13:47:37;6.53;;;5.43;;
23406;SDS011;11876;53.438;18.942;2023-04-24T13:50:42;8.20;;;5.68;;
23406;SDS011;11876;53.438;18.942;2023-04-24T13:53:44;7.57;;;5.18;;
23406;SDS011;11876;53.438;18.942;2023-04-24T13:56:47;7.57;;;5.63;;
23406;SDS011;11876;53.438;18.942;2023-04-24T13:59:49;5.75;;;5.15;;
23406;SDS011;11876;53.438;18.942;2023-04-24T14:02:52;12.05;;;7.47;;
23406;SDS011;11876;53.438;18.942;2023-04-24T14:05:54;10.02;;;7.13;;
23406;SDS011;11876;53.438;18.942;2023-04-24T14:08:57;8.88;;;5.45;;
23406;SDS011;11876;53.438;18.942;2023-04-24T14:11:59;10.27;;;5.65;;
23406;SDS011;11876;53.438;18.942;2023-04-24T14:15:03;5.05;;;4.65;;
23406;SDS011;11876;53.438;18.942;2023-04-24T14:18:06;6.13;;;5.18;;
23406;SDS011;11876;53.438;18.942;2023-04-24T14:21:09;6.43;;;5.72;;
23406;SDS011;11876;53.438;18.942;2023-04-24T14:24:11;7.05;;;5.32;;
23406;SDS011;11876;53.438;18.942;2023-04-24T14:27:13;6.53;;;5.32;;
23406;SDS011;11876;53.438;18.942;2023-04-24T14:30:16;9.30;;;5.97;;
23406;SDS011;11876;53.438;18.942;2023-04-24T14:33:19;8.80;;;5.60;;
23406;SDS011;11876;53.438;18.942;2023-04-24T14:36:22;5.70;;;5.20;;
23406;SDS011;11876;53.438;18.942;2023-04-24T14:39:24;6.80;;;5.40;;
23406;SDS011;11876;53.438;18.942;2023-04-24T14:42:26;6.72;;;5.30;;
23406;SDS011;11876;53.438;18.942;2023-04-24T14:45:30;7.17;;;6.40;;
23406;SDS011;11876;53.438;18.942;2023-04-24T14:48:32;13.38;;;7.28;;
23406;SDS011;11876;53.438;18.942;2023-04-24T14:51:38;8.40;;;5.40;;
23406;SDS011;11876;53.438;18.942;2023-04-24T14:54:40;5.78;;;5.22;;
23406;SDS011;11876;53.438;18.942;2023-04-24T14:57:42;5.90;;;5.32;;
23406;SDS011;11876;53.438;18.942;2023-04-24T15:00:45;6.35;;;5.57;;
23406;SDS011;11876;53.438;18.942;2023-04-24T15:03:47;6.70;;;5.45;;
23406;SDS011;11876;53.438;18.942;2023-04-24T15:06:51;9.23;;;7.05;;
23406;SDS011;11876;53.438;18.942;2023-04-24T15:09:55;8.13;;;7.32;;
23406;SDS011;11876;53.438;18.942;2023-04-24T15:12:58;9.10;;;6.97;;
23406;SDS011;11876;53.438;18.942;2023-04-24T15:16:00;9.13;;;7.63;;
23406;SDS011;11876;53.438;18.942;2023-04-24T15:19:03;8.82;;;8.05;;
23406;SDS011;11876;53.438;18.942;2023-04-24T15:22:06;9.43;;;7.53;;
23406;SDS011;11876;53.438;18.942;2023-04-24T15:25:09;10.20;;;9.25;;
23406;SDS011;11876;53.438;18.942;2023-04-24T15:28:12;12.15;;;8.68;;
23406;SDS011;11876;53.438;18.942;2023-04-24T15:31:15;20.65;;;16.63;;
23406;SDS011;11876;53.438;18.942;2023-04-24T15:34:18;15.50;;;12.18;;
23406;SDS011;11876;53.438;18.942;2023-04-24T15:37:20;10.88;;;9.77;;
23406;SDS011;11876;53.438;18.942;2023-04-24T15:40:22;11.63;;;9.77;;
23406;SDS011;11876;53.438;18.942;2023-04-24T15:43:25;11.77;;;9.88;;
23406;SDS011;11876;53.438;18.942;2023-04-24T15:46:27;11.85;;;9.82;;
23406;SDS011;11876;53.438;18.942;2023-04-24T15:49:30;15.05;;;10.93;;
23406;SDS011;11876;53.438;18.942;2023-04-24T15:52:34;10.13;;;8.52;;
23406;SDS011;11876;53.438;18.942;2023-04-24T15:55:36;12.02;;;10.25;;
23406;SDS011;11876;53.438;18.942;2023-04-24T15:58:39;10.93;;;9.35;;
23406;SDS011;11876;53.438;18.942;2023-04-24T16:01:41;10.27;;;9.27;;
23406;SDS011;11876;53.438;18.942;2023-04-24T16:04:44;9.07;;;8.18;;
23406;SDS011;11876;53.438;18.942;2023-04-24T16:07:47;11.20;;;9.13;;
23406;SDS011;11876;53.438;18.942;2023-04-24T16:10:50;15.82;;;10.40;;
23406;SDS011;11876;53.438;18.942;2023-04-24T16:13:53;11.77;;;10.57;;
23406;SDS011;11876;53.438;18.942;2023-04-24T16:16:55;13.82;;;11.88;;
23406;SDS011;11876;53.438;18.942;2023-04-24T16:19:58;12.48;;;9.45;;
23406;SDS011;11876;53.438;18.942;2023-04-24T16:23:01;12.30;;;9.18;;
23406;SDS011;11876;53.438;18.942;2023-04-24T16:26:03;11.07;;;9.93;;
23406;SDS011;11876;53.438;18.942;2023-04-24T16:29:06;12.32;;;10.63;;
23406;SDS011;11876;53.438;18.942;2023-04-24T16:32:08;12.43;;;9.85;;
23406;SDS011;11876;53.438;18.942;2023-04-24T16:35:11;12.57;;;11.20;;
23406;SDS011;11876;53.438;18.942;2023-04-24T16:38:14;18.42;;;10.25;;
23406;SDS011;11876;53.438;18.942;2023-04-24T16:41:16;22.02;;;11.90;;
23406;SDS011;11876;53.438;18.942;2023-04-24T16:44:19;12.18;;;10.85;;
23406;SDS011;11876;53.438;18.942;2023-04-24T16:47:21;12.10;;;10.75;;
23406;SDS011;11876;53.438;18.942;2023-04-24T16:50:24;17.80;;;14.07;;
23406;SDS011;11876;53.438;18.942;2023-04-24T16:53:26;18.77;;;14.77;;
23406;SDS011;11876;53.438;18.942;2023-04-24T16:56:29;18.48;;;14.80;;
23406;SDS011;11876;53.438;18.942;2023-04-24T16:59:31;17.38;;;13.32;;
23406;SDS011;11876;53.438;18.942;2023-04-24T17:02:35;10.65;;;8.73;;
23406;SDS011;11876;53.438;18.942;2023-04-24T17:05:38;12.82;;;11.52;;
23406;SDS011;11876;53.438;18.942;2023-04-24T17:08:40;13.15;;;10.73;;
23406;SDS011;11876;53.438;18.942;2023-04-24T17:11:43;13.13;;;10.27;;
23406;SDS011;11876;53.438;18.942;2023-04-24T17:14:45;13.75;;;10.40;;
23406;SDS011;11876;53.438;18.942;2023-04-24T17:17:48;10.90;;;9.82;;
23406;SDS011;11876;53.438;18.942;2023-04-24T17:20:51;15.13;;;9.90;;
23406;SDS011;11876;53.438;18.942;2023-04-24T17:23:53;12.50;;;9.45;;
23406;SDS011;11876;53.438;18.942;2023-04-24T17:26:56;11.77;;;10.57;;
23406;SDS011;11876;53.438;18.942;2023-04-24T17:30:12;11.48;;;10.27;;
23406;SDS011;11876;53.438;18.942;2023-04-24T17:33:15;22.20;;;18.25;;
23406;SDS011;11876;53.438;18.942;2023-04-24T17:36:18;28.35;;;17.75;;
23406;SDS011;11876;53.438;18.942;2023-04-24T17:39:20;32.15;;;17.27;;
23406;SDS011;11876;53.438;18.942;2023-04-24T17:42:23;17.13;;;14.05;;
23406;SDS011;11876;53.438;18.942;2023-04-24T17:45:25;15.88;;;10.73;;
23406;SDS011;11876;53.438;18.942;2023-04-24T17:48:27;19.98;;;11.90;;
23406;SDS011;11876;53.438;18.942;2023-04-24T17:51:30;41.47;;;24.70;;
23406;SDS011;11876;53.438;18.942;2023-04-24T17:54:33;17.75;;;8.90;;
23406;SDS011;11876;53.438;18.942;2023-04-24T17:57:36;10.57;;;8.15;;
23406;SDS011;11876;53.438;18.942;2023-04-24T18:00:38;11.20;;;9.15;;
23406;SDS011;11876;53.438;18.942;2023-04-24T18:03:42;18.50;;;11.23;;
23406;SDS011;11876;53.438;18.942;2023-04-24T18:06:45;11.00;;;9.90;;
23406;SDS011;11876;53.438;18.942;2023-04-24T18:09:47;12.15;;;9.30;;
23406;SDS011;11876;53.438;18.942;2023-04-24T18:12:53;8.80;;;8.00;;
23406;SDS011;11876;53.438;18.942;2023-04-24T18:15:56;16.88;;;10.48;;
23406;SDS011;11876;53.438;18.942;2023-04-24T18:18:59;13.18;;;9.90;;
23406;SDS011;11876;53.438;18.942;2023-04-24T18:22:02;18.88;;;13.93;;